Terminal Aerodrome Forecast
Issued by NWS

Home | Current Version | Previous Version | Text Only | Print | Product List | Glossary On
Versions: 1 2 3 4 5 6 7 8 9 10 11 12 13 14 15 16 17 18 19 20 21 22 23 24
029
FTUS42 KGSP 251740
TAFAND
TAF
KAND 251740Z 2518/2618 25013G25KT P6SM FEW050 SCT070
      TEMPO 2518/2522 BKN050
     FM260100 25009KT P6SM FEW250
     FM260600 25005KT P6SM SKC
     FM261600 26012G18KT P6SM SCT250=

USA.gov is the U.S. government's official web portal to all federal, state and local government web resources and services.